Time;durP1;ratioP1;P1;durP2;ratioP2;P2;SDS_P1;SDS_P2;PMS_P1;PMS_P2;Temp;Humidity;BMP_temperature;BMP_pressure;BME280_temperature;BME280_humidity;BME280_pressure;Samples;Min_cycle;Max_cycle;Signal;HPM_P1;HPM_P2
2022/04/08 00:00:11;;;;;;;;;;;;;;;;;;5082100;28;19920;-57
2022/04/08 00:02:38;;;;;;;;;;;;;;;;;;5059273;28;20561;-57
2022/04/08 00:05:06;;;;;;;;;;;;;;;;;;5078653;28;19920;-57
2022/04/08 00:21:06;;;;;;;;;;;;;;;;;;5057237;28;20000;-59
2022/04/08 00:23:36;;;;;;;;;;;;;;;;;;5077775;28;20010;-56
2022/04/08 00:26:04;;;;;;;;;;;;;;;;;;5060199;28;20355;-57
2022/04/08 00:28:31;;;;;;;;;;;;;;;;;;5079569;28;19959;-58
2022/04/08 00:30:57;;;;;;;;;;;;;;;;;;5056962;28;19948;-58
2022/04/08 00:33:22;;;;;;;;;;;;;;;;;;5078757;28;20611;-58
2022/04/08 00:35:49;;;;;;;;;;;;;;;;;;5082286;28;19923;-58
2022/04/08 00:38:15;;;;;;;;;;;;;;;;;;5078752;28;19968;-57
2022/04/08 00:40:40;;;;;;;;;;;;;;;;;;5081082;28;19930;-57
2022/04/08 00:43:06;;;;;;;;;;;;;;;;;;5062229;28;19930;-57
2022/04/08 00:45:31;;;;;;;;;;;;;;;;;;5077508;28;19919;-59
2022/04/08 00:47:56;;;;;;;;;;;;;;;;;;5082719;28;19920;-57
2022/04/08 00:50:22;;;;;;;;;;;;;;;;;;5080874;28;19930;-57
2022/04/08 00:52:50;;;;;;;;;;;;;;;;;;5077739;28;20390;-58
2022/04/08 00:55:18;;;;;;;;;;;;;;;;;;5059732;28;19930;-57
2022/04/08 00:57:43;;;;;;;;;;;;;;;;;;5059935;28;19924;-57
2022/04/08 01:00:09;;;;;;;;;;;;;;;;;;5058896;28;19922;-57
2022/04/08 01:02:34;;;;;;;;;;;;;;;;;;5061902;28;19924;-58
2022/04/08 01:05:02;;;;;;;;;;;;;;;;;;5060813;28;20283;-57
2022/04/08 01:07:28;;;;;;;;;;;;;;;;;;5044866;28;19965;-58
2022/04/08 01:09:53;;;;;;;;;;;;;;;;;;5058822;28;19955;-59
2022/04/08 01:12:18;;;;;;;;;;;;;;;;;;5062707;28;20342;-58
2022/04/08 01:14:46;;;;;;;;;;;;;;;;;;5079164;28;20739;-58
2022/04/08 01:17:11;;;;;;;;;;;;;;;;;;5061419;28;19919;-58
2022/04/08 01:19:36;;;;;;;;;;;;;;;;;;5058347;28;20482;-56
2022/04/08 01:22:02;;;;;;;;;;;;;;;;;;5077890;28;20736;-58
2022/04/08 01:24:27;;;;;;;;;;;;;;;;;;5057723;28;19988;-58
2022/04/08 01:26:55;;;;;;;;;;;;;;;;;;5080381;28;19947;-58
2022/04/08 01:29:20;;;;;;;;;;;;;;;;;;5073920;28;19960;-57
2022/04/08 01:31:50;;;;;;;;;;;;;;;;;;5063777;28;19919;-58
2022/04/08 01:34:15;;;;;;;;;;;;;;;;;;5059847;28;20342;-58
2022/04/08 01:36:41;;;;;;;;;;;;;;;;;;5077966;28;20385;-58
2022/04/08 01:39:09;;;;;;;;;;;;;;;;;;5057915;28;19927;-58
2022/04/08 01:41:34;;;;;;;;;;;;;;;;;;5054768;28;21816;-58
2022/04/08 01:44:02;;;;;;;;;;;;;;;;;;5077547;28;20379;-58
2022/04/08 01:46:27;;;;;;;;;;;;;;;;;;5062965;28;19945;-58
2022/04/08 01:48:55;;;;;;;;;;;;;;;;;;5046376;28;19941;-58
2022/04/08 01:51:20;;;;;;;;;;;;;;;;;;5051535;28;19924;-58
2022/04/08 01:53:48;;;;;;;;;;;;;;;;;;5083155;28;20003;-58
2022/04/08 01:56:16;;;;;;;;;;;;;;;;;;5064236;28;19954;-58
2022/04/08 01:58:42;;;;;;;;;;;;;;;;;;5081488;28;19924;-58
2022/04/08 02:01:10;;;;;;;;;;;;;;;;;;5062263;28;19930;-58
2022/04/08 02:03:38;;;;;;;;;;;;;;;;;;5081876;28;20003;-57
2022/04/08 02:06:05;;;;;;;;;;;;;;;;;;5084064;28;19920;-57
2022/04/08 02:08:30;;;;;;;;;;;;;;;;;;5064164;28;19984;-57
2022/04/08 02:11:00;;;;;;;;;;;;;;;;;;5078356;28;20724;-58
2022/04/08 02:13:28;;;;;;;;;;;;;;;;;;5062082;28;19959;-58
2022/04/08 02:15:54;;;;;;;;;;;;;;;;;;5061531;28;19920;-58
2022/04/08 02:18:22;;;;;;;;;;;;;;;;;;5082258;28;19920;-57
2022/04/08 02:20:47;;;;;;;;;;;;;;;;;;5083205;28;19920;-57
2022/04/08 02:23:12;;;;;;;;;;;;;;;;;;5049011;28;19970;-57
2022/04/08 02:25:40;;;;;;;;;;;;;;;;;;5065943;28;20006;-58
2022/04/08 02:28:05;;;;;;;;;;;;;;;;;;5059253;28;20121;-56
2022/04/08 02:30:30;;;;;;;;;;;;;;;;;;5063691;28;19928;-57
2022/04/08 02:32:57;;;;;;;;;;;;;;;;;;5052408;28;19926;-57
2022/04/08 02:35:24;;;;;;;;;;;;;;;;;;5087963;28;20383;-58
2022/04/08 02:37:50;;;;;;;;;;;;;;;;;;5048983;28;19972;-56
2022/04/08 02:40:15;;;;;;;;;;;;;;;;;;5088678;28;20649;-57
2022/04/08 02:42:40;;;;;;;;;;;;;;;;;;5064513;28;19924;-59
2022/04/08 02:45:06;;;;;;;;;;;;;;;;;;5081858;28;19915;-57
2022/04/08 02:47:32;;;;;;;;;;;;;;;;;;5080115;28;19940;-59
2022/04/08 02:50:02;;;;;;;;;;;;;;;;;;5059200;28;19949;-60
2022/04/08 02:52:27;;;;;;;;;;;;;;;;;;5067064;28;19964;-58
2022/04/08 02:54:57;;;;;;;;;;;;;;;;;;5079367;28;19967;-58
2022/04/08 02:57:25;;;;;;;;;;;;;;;;;;5083215;28;20061;-57
2022/04/08 02:59:53;;;;;;;;;;;;;;;;;;5059104;28;19924;-57
2022/04/08 03:02:18;;;;;;;;;;;;;;;;;;5062907;28;19930;-58
2022/04/08 03:04:43;;;;;;;;;;;;;;;;;;5081016;28;19920;-58
2022/04/08 03:07:13;;;;;;;;;;;;;;;;;;5084352;28;20592;-57
2022/04/08 03:09:43;;;;;;;;;;;;;;;;;;5086535;28;19935;-57
2022/04/08 03:12:11;;;;;;;;;;;;;;;;;;5062933;28;19920;-57
2022/04/08 03:14:37;;;;;;;;;;;;;;;;;;5081455;28;20369;-57
2022/04/08 03:17:02;;;;;;;;;;;;;;;;;;5066094;28;20014;-56
2022/04/08 03:19:27;;;;;;;;;;;;;;;;;;5065006;28;19924;-56
2022/04/08 03:21:52;;;;;;;;;;;;;;;;;;5085255;28;20349;-57
2022/04/08 03:24:20;;;;;;;;;;;;;;;;;;5047228;28;20329;-57
2022/04/08 03:26:48;;;;;;;;;;;;;;;;;;5064610;28;20906;-57
2022/04/08 03:29:16;;;;;;;;;;;;;;;;;;5085990;28;19927;-57
2022/04/08 03:31:44;;;;;;;;;;;;;;;;;;5070407;28;19916;-57
2022/04/08 03:34:09;;;;;;;;;;;;;;;;;;5087898;28;19927;-58
2022/04/08 03:36:36;;;;;;;;;;;;;;;;;;5050382;28;19965;-57
2022/04/08 03:39:02;;;;;;;;;;;;;;;;;;5047737;28;19916;-57
2022/04/08 03:41:27;;;;;;;;;;;;;;;;;;5063155;28;19924;-56
2022/04/08 03:43:53;;;;;;;;;;;;;;;;;;5083770;28;19919;-58
2022/04/08 03:46:21;;;;;;;;;;;;;;;;;;5084468;28;19920;-58
2022/04/08 03:48:46;;;;;;;;;;;;;;;;;;5086633;28;19926;-58
2022/04/08 03:51:14;;;;;;;;;;;;;;;;;;5086080;28;20188;-58
2022/04/08 03:53:42;;;;;;;;;;;;;;;;;;5068289;28;19954;-58
2022/04/08 03:56:09;;;;;;;;;;;;;;;;;;5066055;28;19924;-58
2022/04/08 03:58:35;;;;;;;;;;;;;;;;;;5087964;28;20458;-57
2022/04/08 04:01:00;;;;;;;;;;;;;;;;;;5068033;28;19915;-58
2022/04/08 04:03:27;;;;;;;;;;;;;;;;;;5052819;28;21022;-58
2022/04/08 04:05:53;;;;;;;;;;;;;;;;;;5068732;28;19981;-58
2022/04/08 04:08:21;;;;;;;;;;;;;;;;;;5067935;28;19916;-58
2022/04/08 04:10:49;;;;;;;;;;;;;;;;;;5063909;28;19976;-58
2022/04/08 04:13:17;;;;;;;;;;;;;;;;;;5085458;28;19920;-58
2022/04/08 04:15:45;;;;;;;;;;;;;;;;;;5068504;28;19923;-58
2022/04/08 04:18:10;;;;;;;;;;;;;;;;;;5066841;28;20079;-58
2022/04/08 04:20:37;;;;;;;;;;;;;;;;;;5064004;28;19921;-58
2022/04/08 04:23:05;;;;;;;;;;;;;;;;;;5086971;28;19941;-59
2022/04/08 04:25:34;;;;;;;;;;;;;;;;;;5085598;28;19915;-59
2022/04/08 04:27:59;;;;;;;;;;;;;;;;;;5087398;28;20396;-58
2022/04/08 04:30:27;;;;;;;;;;;;;;;;;;5067493;28;19939;-59
2022/04/08 04:32:56;;;;;;;;;;;;;;;;;;5062628;28;19926;-58
2022/04/08 04:35:24;;;;;;;;;;;;;;;;;;5073061;28;19919;-59
2022/04/08 04:37:49;;;;;;;;;;;;;;;;;;5082163;28;19931;-58
2022/04/08 04:40:18;;;;;;;;;;;;;;;;;;5077538;28;19920;-58
2022/04/08 04:42:46;;;;;;;;;;;;;;;;;;5070671;28;21841;-59
2022/04/08 04:45:13;;;;;;;;;;;;;;;;;;5082094;28;20366;-59
2022/04/08 04:47:39;;;;;;;;;;;;;;;;;;5058204;28;19924;-59
2022/04/08 04:50:05;;;;;;;;;;;;;;;;;;5074362;28;20782;-58
2022/04/08 04:52:30;;;;;;;;;;;;;;;;;;5061156;28;20595;-57
2022/04/08 04:54:56;;;;;;;;;;;;;;;;;;5083679;28;19984;-58
2022/04/08 04:57:24;;;;;;;;;;;;;;;;;;5077564;28;19912;-55
2022/04/08 04:59:50;;;;;;;;;;;;;;;;;;5064746;28;19938;-59
2022/04/08 05:02:15;;;;;;;;;;;;;;;;;;5083337;28;19924;-59
2022/04/08 05:04:42;;;;;;;;;;;;;;;;;;5083237;28;19920;-59
2022/04/08 05:07:10;;;;;;;;;;;;;;;;;;5084338;28;20493;-59
2022/04/08 05:09:38;;;;;;;;;;;;;;;;;;5084595;28;20063;-59
2022/04/08 05:12:03;;;;;;;;;;;;;;;;;;5065419;28;20203;-60
2022/04/08 05:14:31;;;;;;;;;;;;;;;;;;5046651;28;19928;-58
2022/04/08 05:16:58;;;;;;;;;;;;;;;;;;5061501;28;19964;-59
2022/04/08 05:19:23;;;;;;;;;;;;;;;;;;5061753;28;19920;-59
2022/04/08 05:21:52;;;;;;;;;;;;;;;;;;5084018;28;19920;-57
2022/04/08 05:24:17;;;;;;;;;;;;;;;;;;5064270;28;19919;-59
2022/04/08 05:26:42;;;;;;;;;;;;;;;;;;5063703;28;21464;-58
2022/04/08 05:29:08;;;;;;;;;;;;;;;;;;5066926;28;19931;-58
2022/04/08 05:31:35;;;;;;;;;;;;;;;;;;5064158;28;20909;-59
2022/04/08 05:34:01;;;;;;;;;;;;;;;;;;5066914;28;19923;-59
2022/04/08 05:36:26;;;;;;;;;;;;;;;;;;5062107;28;19927;-58
2022/04/08 05:38:51;;;;;;;;;;;;;;;;;;5049904;28;19959;-59
2022/04/08 05:41:17;;;;;;;;;;;;;;;;;;5081763;28;19927;-59
2022/04/08 05:43:45;;;;;;;;;;;;;;;;;;5085303;28;19966;-58
2022/04/08 05:46:12;;;;;;;;;;;;;;;;;;5064960;28;20038;-59
2022/04/08 05:48:38;;;;;;;;;;;;;;;;;;5066797;28;19985;-58
2022/04/08 05:51:06;;;;;;;;;;;;;;;;;;5082049;28;19919;-59
2022/04/08 05:53:31;;;;;;;;;;;;;;;;;;5069509;28;20266;-58
2022/04/08 05:55:59;;;;;;;;;;;;;;;;;;5080764;28;20005;-59
2022/04/08 05:58:24;;;;;;;;;;;;;;;;;;5063809;28;20010;-59
2022/04/08 06:00:52;;;;;;;;;;;;;;;;;;5063450;28;19944;-59
2022/04/08 06:03:18;;;;;;;;;;;;;;;;;;5083751;28;19920;-58
2022/04/08 06:05:43;;;;;;;;;;;;;;;;;;5063885;28;19916;-59
2022/04/08 06:08:09;;;;;;;;;;;;;;;;;;5082452;28;19920;-59
2022/04/08 06:10:34;;;;;;;;;;;;;;;;;;5065006;28;20031;-59
2022/04/08 06:13:02;;;;;;;;;;;;;;;;;;5083220;28;19930;-59
2022/04/08 06:15:35;;;;;;;;;;;;;;;;;;5082855;28;19927;-59
2022/04/08 06:18:00;;;;;;;;;;;;;;;;;;5050980;28;19915;-59
2022/04/08 06:20:25;;;;;;;;;;;;;;;;;;5060178;28;20413;-59
2022/04/08 06:22:53;;;;;;;;;;;;;;;;;;5063924;28;19924;-59
2022/04/08 06:25:23;;;;;;;;;;;;;;;;;;5062111;28;19916;-59
2022/04/08 06:27:49;;;;;;;;;;;;;;;;;;5059622;28;19947;-59
2022/04/08 06:30:20;;;;;;;;;;;;;;;;;;5063596;28;20023;-59
2022/04/08 06:32:45;;;;;;;;;;;;;;;;;;5062666;28;19927;-58
2022/04/08 06:35:11;;;;;;;;;;;;;;;;;;5068493;28;20014;-59
2022/04/08 06:37:36;;;;;;;;;;;;;;;;;;5064448;28;20042;-58
2022/04/08 06:40:06;;;;;;;;;;;;;;;;;;5067467;28;19965;-58
2022/04/08 06:42:31;;;;;;;;;;;;;;;;;;5065001;28;20383;-58
2022/04/08 06:44:57;;;;;;;;;;;;;;;;;;5068302;28;19993;-57
2022/04/08 06:47:24;;;;;;;;;;;;;;;;;;5066582;28;20062;-57
2022/04/08 06:49:49;;;;;;;;;;;;;;;;;;5066298;28;19939;-57
2022/04/08 06:52:14;;;;;;;;;;;;;;;;;;5066415;28;20282;-58
2022/04/08 06:54:42;;;;;;;;;;;;;;;;;;5067479;28;20888;-57
2022/04/08 06:57:08;;;;;;;;;;;;;;;;;;5065189;28;19935;-58
2022/04/08 06:59:33;;;;;;;;;;;;;;;;;;5062641;28;19916;-57
2022/04/08 07:01:58;;;;;;;;;;;;;;;;;;5067005;28;20307;-58
2022/04/08 07:04:25;;;;;;;;;;;;;;;;;;5064776;28;19934;-58
2022/04/08 07:06:51;;;;;;;;;;;;;;;;;;5065970;28;19928;-57
2022/04/08 07:09:16;;;;;;;;;;;;;;;;;;5046595;28;19943;-58
2022/04/08 07:11:41;;;;;;;;;;;;;;;;;;5066308;28;19931;-59
2022/04/08 07:14:07;;;;;;;;;;;;;;;;;;5065668;28;19916;-59
2022/04/08 07:16:32;;;;;;;;;;;;;;;;;;5065906;28;19921;-58
2022/04/08 07:18:57;;;;;;;;;;;;;;;;;;5048956;28;19924;-59
2022/04/08 07:21:26;;;;;;;;;;;;;;;;;;5085003;28;19928;-59
2022/04/08 07:23:51;;;;;;;;;;;;;;;;;;5083440;28;19952;-59
2022/04/08 07:26:18;;;;;;;;;;;;;;;;;;5069748;28;20038;-59
2022/04/08 07:28:43;;;;;;;;;;;;;;;;;;5049773;28;20074;-58
2022/04/08 07:31:11;;;;;;;;;;;;;;;;;;5083211;28;20883;-58
2022/04/08 07:33:38;;;;;;;;;;;;;;;;;;5068169;28;19915;-59
2022/04/08 07:36:04;;;;;;;;;;;;;;;;;;5068232;28;19930;-58
2022/04/08 07:38:32;;;;;;;;;;;;;;;;;;5084894;28;19920;-59
2022/04/08 07:40:57;;;;;;;;;;;;;;;;;;5066235;28;19973;-58
2022/04/08 07:43:23;;;;;;;;;;;;;;;;;;5048736;28;20003;-58
2022/04/08 07:45:48;;;;;;;;;;;;;;;;;;5067133;28;19916;-58
2022/04/08 07:48:16;;;;;;;;;;;;;;;;;;5065664;28;21769;-57
2022/04/08 07:50:43;;;;;;;;;;;;;;;;;;5048402;28;19953;-58
2022/04/08 07:53:11;;;;;;;;;;;;;;;;;;5051726;28;19919;-58
2022/04/08 07:55:39;;;;;;;;;;;;;;;;;;5061470;28;19919;-60
2022/04/08 07:58:06;;;;;;;;;;;;;;;;;;5078574;28;19912;-59
2022/04/08 08:00:34;;;;;;;;;;;;;;;;;;5060764;28;19926;-59
2022/04/08 08:03:03;;;;;;;;;;;;;;;;;;5041959;28;19924;-58
2022/04/08 08:05:29;;;;;;;;;;;;;;;;;;5061730;28;20549;-60
2022/04/08 08:07:57;;;;;;;;;;;;;;;;;;5080586;28;20367;-60
2022/04/08 08:10:24;;;;;;;;;;;;;;;;;;5082496;28;19927;-58
2022/04/08 08:12:49;;;;;;;;;;;;;;;;;;5065092;28;19969;-58
2022/04/08 08:15:18;;;;;;;;;;;;;;;;;;5080447;28;19920;-58
2022/04/08 08:17:44;;;;;;;;;;;;;;;;;;5069632;28;20007;-58
2022/04/08 08:20:12;;;;;;;;;;;;;;;;;;5051241;28;19924;-58
2022/04/08 08:22:41;;;;;;;;;;;;;;;;;;5066322;28;19916;-58
2022/04/08 08:25:09;;;;;;;;;;;;;;;;;;5061588;28;20038;-58
2022/04/08 08:27:36;;;;;;;;;;;;;;;;;;5044971;28;19916;-58
2022/04/08 08:30:03;;;;;;;;;;;;;;;;;;5073168;28;19919;-59
2022/04/08 08:32:28;;;;;;;;;;;;;;;;;;5063885;28;19931;-58
2022/04/08 08:34:58;;;;;;;;;;;;;;;;;;5078782;28;19922;-58
2022/04/08 08:37:24;;;;;;;;;;;;;;;;;;5082366;28;19920;-59
2022/04/08 08:39:55;;;;;;;;;;;;;;;;;;5063452;28;20271;-59
2022/04/08 08:42:21;;;;;;;;;;;;;;;;;;5060177;28;19920;-58
2022/04/08 08:44:48;;;;;;;;;;;;;;;;;;5049484;28;19927;-57
2022/04/08 08:47:16;;;;;;;;;;;;;;;;;;5059736;28;19963;-58
2022/04/08 08:49:41;;;;;;;;;;;;;;;;;;5059096;28;20597;-58
2022/04/08 08:52:09;;;;;;;;;;;;;;;;;;5061626;28;20306;-58
2022/04/08 08:54:35;;;;;;;;;;;;;;;;;;5080183;28;19947;-58
2022/04/08 08:57:02;;;;;;;;;;;;;;;;;;5042288;28;19951;-58
2022/04/08 08:59:29;;;;;;;;;;;;;;;;;;5056425;28;19926;-58
2022/04/08 09:01:56;;;;;;;;;;;;;;;;;;5084435;28;19935;-58
2022/04/08 09:04:26;;;;;;;;;;;;;;;;;;5085095;28;19934;-57
2022/04/08 09:06:58;;;;;;;;;;;;;;;;;;5064139;28;20282;-58
2022/04/08 09:09:26;;;;;;;;;;;;;;;;;;5081141;28;19931;-56
2022/04/08 09:11:53;;;;;;;;;;;;;;;;;;5080636;28;19912;-59
2022/04/08 09:14:21;;;;;;;;;;;;;;;;;;5039658;28;20031;-59
2022/04/08 09:16:47;;;;;;;;;;;;;;;;;;5073945;28;19973;-59
2022/04/08 09:19:12;;;;;;;;;;;;;;;;;;5080297;28;19916;-60
2022/04/08 09:21:40;;;;;;;;;;;;;;;;;;5064830;28;19939;-59
2022/04/08 09:24:05;;;;;;;;;;;;;;;;;;5066721;28;19947;-59
2022/04/08 09:26:33;;;;;;;;;;;;;;;;;;5047400;28;19919;-59
2022/04/08 09:28:58;;;;;;;;;;;;;;;;;;5060993;28;20559;-59
2022/04/08 09:31:23;;;;;;;;;;;;;;;;;;5079731;28;19953;-58
2022/04/08 09:33:49;;;;;;;;;;;;;;;;;;5044720;28;20387;-58
2022/04/08 09:36:14;;;;;;;;;;;;;;;;;;5061031;28;19924;-60
2022/04/08 09:38:40;;;;;;;;;;;;;;;;;;5083497;28;19915;-60
2022/04/08 09:41:11;;;;;;;;;;;;;;;;;;5076264;28;20988;-58
2022/04/08 09:43:36;;;;;;;;;;;;;;;;;;5042309;28;19927;-59
2022/04/08 09:46:04;;;;;;;;;;;;;;;;;;5076278;28;20779;-60
2022/04/08 09:48:30;;;;;;;;;;;;;;;;;;5060707;28;19920;-59
2022/04/08 09:50:56;;;;;;;;;;;;;;;;;;5078316;28;19924;-60
2022/04/08 09:53:21;;;;;;;;;;;;;;;;;;5059282;28;19919;-60
2022/04/08 09:55:49;;;;;;;;;;;;;;;;;;5059235;28;19915;-60
2022/04/08 09:58:19;;;;;;;;;;;;;;;;;;5085312;28;19916;-59
2022/04/08 10:00:44;;;;;;;;;;;;;;;;;;5083048;28;19938;-59
2022/04/08 10:03:09;;;;;;;;;;;;;;;;;;5066316;28;20445;-61
2022/04/08 10:05:37;;;;;;;;;;;;;;;;;;5062972;28;20440;-59
2022/04/08 10:08:03;;;;;;;;;;;;;;;;;;5065403;28;20632;-60
2022/04/08 10:10:28;;;;;;;;;;;;;;;;;;5083120;28;20449;-57
2022/04/08 10:12:53;;;;;;;;;;;;;;;;;;5061632;28;19916;-59
2022/04/08 10:15:19;;;;;;;;;;;;;;;;;;5063193;28;19919;-58
2022/04/08 10:17:45;;;;;;;;;;;;;;;;;;5044160;28;19922;-60
2022/04/08 10:20:10;;;;;;;;;;;;;;;;;;5064259;28;20143;-60
2022/04/08 10:22:36;;;;;;;;;;;;;;;;;;5085176;28;19916;-60
2022/04/08 10:25:02;;;;;;;;;;;;;;;;;;5084722;28;20271;-60
2022/04/08 10:27:27;;;;;;;;;;;;;;;;;;5086244;28;19927;-61
2022/04/08 10:29:55;;;;;;;;;;;;;;;;;;5083958;28;20018;-60
2022/04/08 10:32:22;;;;;;;;;;;;;;;;;;5088506;28;21880;-59
2022/04/08 10:34:49;;;;;;;;;;;;;;;;;;5086644;28;20018;-59
2022/04/08 10:37:17;;;;;;;;;;;;;;;;;;5069080;28;19924;-58
2022/04/08 10:39:42;;;;;;;;;;;;;;;;;;5087529;28;19926;-57
2022/04/08 10:42:08;;;;;;;;;;;;;;;;;;5084543;28;19920;-57
2022/04/08 10:44:36;;;;;;;;;;;;;;;;;;5065452;28;19916;-59
2022/04/08 10:47:04;;;;;;;;;;;;;;;;;;5066891;28;19920;-58
2022/04/08 10:49:30;;;;;;;;;;;;;;;;;;5088314;28;20899;-59
2022/04/08 10:51:55;;;;;;;;;;;;;;;;;;5083489;28;19979;-60
2022/04/08 10:54:23;;;;;;;;;;;;;;;;;;5086210;28;19919;-60
2022/04/08 10:56:48;;;;;;;;;;;;;;;;;;5066216;28;21024;-60
2022/04/08 10:59:16;;;;;;;;;;;;;;;;;;5083952;28;19963;-60
2022/04/08 11:01:42;;;;;;;;;;;;;;;;;;5088222;28;19967;-60
2022/04/08 11:04:07;;;;;;;;;;;;;;;;;;5070279;28;20010;-59
2022/04/08 11:06:35;;;;;;;;;;;;;;;;;;5069134;28;20600;-60
2022/04/08 11:09:00;;;;;;;;;;;;;;;;;;5049860;28;21772;-59
2022/04/08 11:11:28;;;;;;;;;;;;;;;;;;5084097;28;19926;-60
2022/04/08 11:13:53;;;;;;;;;;;;;;;;;;5053498;28;19930;-60
2022/04/08 11:16:21;;;;;;;;;;;;;;;;;;5066293;28;19920;-59
2022/04/08 11:18:47;;;;;;;;;;;;;;;;;;5084029;28;19920;-59
2022/04/08 11:21:13;;;;;;;;;;;;;;;;;;5083436;28;20042;-61
2022/04/08 11:23:38;;;;;;;;;;;;;;;;;;5081832;28;19920;-61
2022/04/08 11:26:06;;;;;;;;;;;;;;;;;;5086571;28;19920;-59
2022/04/08 11:28:31;;;;;;;;;;;;;;;;;;5066358;28;19931;-60
2022/04/08 11:30:56;;;;;;;;;;;;;;;;;;5068666;28;19939;-59
2022/04/08 11:33:27;;;;;;;;;;;;;;;;;;5085917;28;19920;-60
2022/04/08 11:35:52;;;;;;;;;;;;;;;;;;5080785;28;19971;-61
2022/04/08 11:38:20;;;;;;;;;;;;;;;;;;5078484;28;19920;-58
2022/04/08 11:40:45;;;;;;;;;;;;;;;;;;5060706;28;20454;-60
2022/04/08 11:43:10;;;;;;;;;;;;;;;;;;5041022;28;19930;-59
2022/04/08 11:45:37;;;;;;;;;;;;;;;;;;5065138;28;19982;-60
2022/04/08 11:48:02;;;;;;;;;;;;;;;;;;5059548;28;20308;-60
2022/04/08 11:50:30;;;;;;;;;;;;;;;;;;5080603;28;19995;-60
2022/04/08 11:52:58;;;;;;;;;;;;;;;;;;5080174;28;19976;-59
2022/04/08 11:55:24;;;;;;;;;;;;;;;;;;5058798;28;20921;-60
2022/04/08 11:57:49;;;;;;;;;;;;;;;;;;5061888;28;19927;-60
2022/04/08 12:00:14;;;;;;;;;;;;;;;;;;5059981;28;19927;-60
2022/04/08 12:02:40;;;;;;;;;;;;;;;;;;5059825;28;19927;-60
2022/04/08 12:05:06;;;;;;;;;;;;;;;;;;5080148;28;19919;-61
2022/04/08 12:07:34;;;;;;;;;;;;;;;;;;5085092;28;19916;-60
2022/04/08 12:10:02;;;;;;;;;;;;;;;;;;5081030;28;20012;-59
2022/04/08 12:12:30;;;;;;;;;;;;;;;;;;5080140;28;19923;-60
2022/04/08 12:14:58;;;;;;;;;;;;;;;;;;5056849;28;19920;-61
2022/04/08 12:17:26;;;;;;;;;;;;;;;;;;5067362;28;19966;-62
2022/04/08 12:19:52;;;;;;;;;;;;;;;;;;5058445;28;19919;-61
2022/04/08 12:22:18;;;;;;;;;;;;;;;;;;5077804;28;21188;-61
2022/04/08 12:24:43;;;;;;;;;;;;;;;;;;5058671;28;19931;-60
2022/04/08 12:27:09;;;;;;;;;;;;;;;;;;5080761;28;19920;-61
2022/04/08 12:29:37;;;;;;;;;;;;;;;;;;5063255;28;19928;-59
2022/04/08 12:32:03;;;;;;;;;;;;;;;;;;5078317;28;19916;-61
2022/04/08 12:34:30;;;;;;;;;;;;;;;;;;5052719;28;19915;-61
2022/04/08 12:36:58;;;;;;;;;;;;;;;;;;5064258;28;20007;-60
2022/04/08 12:39:25;;;;;;;;;;;;;;;;;;5084591;28;19920;-61
2022/04/08 12:41:51;;;;;;;;;;;;;;;;;;5063752;28;19941;-61
2022/04/08 12:44:16;;;;;;;;;;;;;;;;;;5063114;28;19919;-61
2022/04/08 12:46:41;;;;;;;;;;;;;;;;;;5078395;28;19916;-61
2022/04/08 12:49:06;;;;;;;;;;;;;;;;;;5045962;28;20663;-60
2022/04/08 12:51:34;;;;;;;;;;;;;;;;;;5059909;28;20013;-61
2022/04/08 12:54:00;;;;;;;;;;;;;;;;;;5043145;28;19920;-61
2022/04/08 12:56:26;;;;;;;;;;;;;;;;;;5039311;28;20007;-61
2022/04/08 12:58:54;;;;;;;;;;;;;;;;;;5060675;28;19927;-61
2022/04/08 13:01:22;;;;;;;;;;;;;;;;;;5055863;28;19920;-61
2022/04/08 13:03:50;;;;;;;;;;;;;;;;;;5060877;28;19935;-59
2022/04/08 13:06:15;;;;;;;;;;;;;;;;;;5077329;28;19923;-61
2022/04/08 13:08:43;;;;;;;;;;;;;;;;;;5056929;28;19916;-62
2022/04/08 13:11:08;;;;;;;;;;;;;;;;;;5077980;28;19946;-62
2022/04/08 13:13:33;;;;;;;;;;;;;;;;;;5051446;28;20589;-61
2022/04/08 13:16:01;;;;;;;;;;;;;;;;;;5078105;28;19915;-61
2022/04/08 13:18:29;;;;;;;;;;;;;;;;;;5079139;28;19927;-59
2022/04/08 13:20:54;;;;;;;;;;;;;;;;;;5057103;28;19919;-62
2022/04/08 13:23:23;;;;;;;;;;;;;;;;;;5059463;28;21998;-60
2022/04/08 13:25:51;;;;;;;;;;;;;;;;;;5076349;28;19920;-61
2022/04/08 13:28:16;;;;;;;;;;;;;;;;;;5059032;28;19946;-61
2022/04/08 13:30:41;;;;;;;;;;;;;;;;;;5079117;28;19952;-61
2022/04/08 13:33:09;;;;;;;;;;;;;;;;;;5076705;28;20772;-62
2022/04/08 13:35:34;;;;;;;;;;;;;;;;;;5057736;28;19931;-62
2022/04/08 13:38:00;;;;;;;;;;;;;;;;;;5078635;28;19919;-61
2022/04/08 13:40:28;;;;;;;;;;;;;;;;;;5041251;28;19923;-61
2022/04/08 13:42:58;;;;;;;;;;;;;;;;;;5065692;28;19926;-62
2022/04/08 13:45:23;;;;;;;;;;;;;;;;;;5061492;28;19924;-62
2022/04/08 13:47:53;;;;;;;;;;;;;;;;;;5061124;28;19919;-62
2022/04/08 13:50:19;;;;;;;;;;;;;;;;;;5064882;28;19924;-62
2022/04/08 13:52:44;;;;;;;;;;;;;;;;;;5079014;28;19984;-61
2022/04/08 13:55:11;;;;;;;;;;;;;;;;;;5063409;28;19915;-60
2022/04/08 13:57:39;;;;;;;;;;;;;;;;;;5048600;28;19920;-61
2022/04/08 14:00:07;;;;;;;;;;;;;;;;;;5060781;28;19924;-59
2022/04/08 14:02:32;;;;;;;;;;;;;;;;;;5063852;28;19923;-62
2022/04/08 14:04:58;;;;;;;;;;;;;;;;;;5082883;28;19924;-61
2022/04/08 14:07:25;;;;;;;;;;;;;;;;;;5082437;28;19916;-62
2022/04/08 14:09:53;;;;;;;;;;;;;;;;;;5064198;28;19920;-61
2022/04/08 14:12:22;;;;;;;;;;;;;;;;;;5062585;28;19973;-61
2022/04/08 14:14:47;;;;;;;;;;;;;;;;;;5082589;28;20454;-62
2022/04/08 14:17:12;;;;;;;;;;;;;;;;;;5084756;28;19924;-59
2022/04/08 14:19:37;;;;;;;;;;;;;;;;;;5063727;28;19919;-58
2022/04/08 14:22:03;;;;;;;;;;;;;;;;;;5082397;28;19924;-58
2022/04/08 14:24:30;;;;;;;;;;;;;;;;;;5062596;28;20314;-61
2022/04/08 14:26:56;;;;;;;;;;;;;;;;;;5082674;28;20039;-61
2022/04/08 14:29:21;;;;;;;;;;;;;;;;;;5061008;28;19924;-61
2022/04/08 14:31:46;;;;;;;;;;;;;;;;;;5063550;28;20089;-59
2022/04/08 14:34:12;;;;;;;;;;;;;;;;;;5046072;28;20035;-60
2022/04/08 14:36:37;;;;;;;;;;;;;;;;;;5056329;28;19919;-60
2022/04/08 14:39:03;;;;;;;;;;;;;;;;;;5061744;28;19985;-61
2022/04/08 14:41:28;;;;;;;;;;;;;;;;;;5080712;28;19919;-58
2022/04/08 14:43:54;;;;;;;;;;;;;;;;;;5057980;28;20009;-60
2022/04/08 14:46:24;;;;;;;;;;;;;;;;;;5063154;28;19920;-62
2022/04/08 14:48:50;;;;;;;;;;;;;;;;;;5077014;28;19926;-59
2022/04/08 14:51:17;;;;;;;;;;;;;;;;;;5061899;28;19928;-61
2022/04/08 14:53:43;;;;;;;;;;;;;;;;;;5063044;28;19930;-60
2022/04/08 14:56:11;;;;;;;;;;;;;;;;;;5081236;28;19928;-61
2022/04/08 14:58:39;;;;;;;;;;;;;;;;;;5079473;28;19924;-61
2022/04/08 15:01:05;;;;;;;;;;;;;;;;;;5077412;28;20939;-59
2022/04/08 15:03:34;;;;;;;;;;;;;;;;;;5079083;28;19926;-65
2022/04/08 15:05:59;;;;;;;;;;;;;;;;;;5063878;28;19920;-61
2022/04/08 15:08:27;;;;;;;;;;;;;;;;;;5063262;28;20002;-60
2022/04/08 15:10:55;;;;;;;;;;;;;;;;;;5062057;28;19927;-58
2022/04/08 15:13:20;;;;;;;;;;;;;;;;;;5063145;28;19961;-62
2022/04/08 15:15:45;;;;;;;;;;;;;;;;;;5056830;28;19947;-60
2022/04/08 15:18:10;;;;;;;;;;;;;;;;;;5078702;28;20033;-62
2022/04/08 15:20:36;;;;;;;;;;;;;;;;;;5059381;28;19955;-61
2022/04/08 15:23:03;;;;;;;;;;;;;;;;;;5080063;28;19916;-62
2022/04/08 15:25:29;;;;;;;;;;;;;;;;;;5062151;28;20008;-61
2022/04/08 15:27:54;;;;;;;;;;;;;;;;;;5061955;28;20767;-62
2022/04/08 15:30:22;;;;;;;;;;;;;;;;;;5061276;28;19931;-61
2022/04/08 15:32:47;;;;;;;;;;;;;;;;;;5081003;28;19923;-60
2022/04/08 15:35:13;;;;;;;;;;;;;;;;;;5040000;28;20503;-62
2022/04/08 15:37:44;;;;;;;;;;;;;;;;;;5080168;28;19939;-63
2022/04/08 15:40:12;;;;;;;;;;;;;;;;;;5079792;28;19915;-62
2022/04/08 15:42:40;;;;;;;;;;;;;;;;;;5074711;28;19920;-60
2022/04/08 15:45:05;;;;;;;;;;;;;;;;;;5079218;28;19962;-61
2022/04/08 15:47:31;;;;;;;;;;;;;;;;;;5062434;28;19920;-60
2022/04/08 15:49:59;;;;;;;;;;;;;;;;;;5082211;28;19930;-61
2022/04/08 15:52:27;;;;;;;;;;;;;;;;;;5077469;28;19916;-59
2022/04/08 15:54:52;;;;;;;;;;;;;;;;;;5054961;28;19919;-62
2022/04/08 15:57:17;;;;;;;;;;;;;;;;;;5040416;28;20447;-62
2022/04/08 15:59:42;;;;;;;;;;;;;;;;;;5060695;28;19923;-63
2022/04/08 16:02:07;;;;;;;;;;;;;;;;;;5046813;28;19919;-63
2022/04/08 16:04:35;;;;;;;;;;;;;;;;;;5061668;28;19962;-61
2022/04/08 16:07:03;;;;;;;;;;;;;;;;;;5061527;28;20336;-58
2022/04/08 16:09:31;;;;;;;;;;;;;;;;;;5084482;28;19942;-60
2022/04/08 16:11:56;;;;;;;;;;;;;;;;;;5065980;28;19931;-61
2022/04/08 16:14:23;;;;;;;;;;;;;;;;;;5067405;28;19916;-61
2022/04/08 16:16:50;;;;;;;;;;;;;;;;;;5053242;28;19923;-61
2022/04/08 16:19:15;;;;;;;;;;;;;;;;;;5086664;28;20554;-61
2022/04/08 16:21:41;;;;;;;;;;;;;;;;;;5086808;28;19949;-61
2022/04/08 16:24:06;;;;;;;;;;;;;;;;;;5065767;28;19953;-61
2022/04/08 16:26:39;;;;;;;;;;;;;;;;;;5086127;28;20502;-60
2022/04/08 16:29:07;;;;;;;;;;;;;;;;;;5064130;28;19916;-59
2022/04/08 16:31:32;;;;;;;;;;;;;;;;;;5083664;28;19927;-59
2022/04/08 16:33:57;;;;;;;;;;;;;;;;;;5068014;28;19924;-61
2022/04/08 16:36:23;;;;;;;;;;;;;;;;;;5083256;28;19919;-59
2022/04/08 16:38:50;;;;;;;;;;;;;;;;;;5066747;28;19920;-59
2022/04/08 16:41:16;;;;;;;;;;;;;;;;;;5069325;28;20001;-61
2022/04/08 16:43:46;;;;;;;;;;;;;;;;;;5068792;28;19958;-61
2022/04/08 16:46:11;;;;;;;;;;;;;;;;;;5067246;28;19930;-61
2022/04/08 16:48:36;;;;;;;;;;;;;;;;;;5066674;28;19948;-61
2022/04/08 16:51:02;;;;;;;;;;;;;;;;;;5068718;28;19926;-60
2022/04/08 16:53:30;;;;;;;;;;;;;;;;;;5081130;28;20472;-60